createdAt,value
2022-11-18T00:01:22.318Z,98586.00
2022-11-18T00:03:51.287Z,98581.00
2022-11-18T00:06:21.959Z,98580.00
2022-11-18T00:08:50.026Z,98575.00
2022-11-18T00:11:56.176Z,98578.00
2022-11-18T00:14:27.774Z,98585.00
2022-11-18T00:17:04.080Z,98587.00
2022-11-18T00:19:35.346Z,98586.00
2022-11-18T00:22:04.243Z,98581.00
2022-11-18T00:24:32.135Z,98581.00
2022-11-18T00:27:00.457Z,98582.00
2022-11-18T00:29:31.840Z,98583.00
2022-11-18T00:31:59.848Z,98581.00
2022-11-18T00:34:27.984Z,98583.00
2022-11-18T00:36:55.872Z,98592.00
2022-11-18T00:39:23.990Z,98575.00
2022-11-18T00:42:10.712Z,98582.00
2022-11-18T00:44:38.635Z,98569.00
2022-11-18T00:47:06.405Z,98584.00
2022-11-18T00:49:34.116Z,98587.00
2022-11-18T00:52:02.271Z,98589.00
2022-11-18T00:54:30.386Z,98594.00
2022-11-18T00:56:58.303Z,98590.00
2022-11-18T00:59:26.298Z,98590.00
2022-11-18T01:01:54.543Z,98590.00
2022-11-18T01:04:22.600Z,98584.00
2022-11-18T01:06:50.606Z,98587.00
2022-11-18T01:09:18.668Z,98576.00
2022-11-18T01:12:05.227Z,98581.00
2022-11-18T01:14:33.215Z,98583.00
2022-11-18T01:17:01.838Z,98591.00
2022-11-18T01:19:29.763Z,98603.00
2022-11-18T01:22:03.216Z,98606.00
2022-11-18T01:24:32.342Z,98614.00
2022-11-18T01:27:01.288Z,98614.00
2022-11-18T01:29:29.166Z,98613.00
2022-11-18T01:32:22.716Z,98617.00
2022-11-18T01:34:44.920Z,98630.00
2022-11-18T01:37:12.905Z,98629.00
2022-11-18T01:39:40.800Z,98619.00
2022-11-18T01:42:15.948Z,98611.00
2022-11-18T01:44:57.581Z,98619.00
2022-11-18T01:47:27.872Z,98613.00
2022-11-18T01:49:56.134Z,98620.00
2022-11-18T01:52:24.741Z,98621.00
2022-11-18T01:54:58.079Z,98612.00
2022-11-18T01:57:27.924Z,98619.00
2022-11-18T01:59:59.207Z,98617.00
2022-11-18T02:02:28.677Z,98617.00
2022-11-18T02:04:56.960Z,98615.00
2022-11-18T02:07:25.765Z,98614.00
2022-11-18T02:09:54.987Z,98618.00
2022-11-18T02:12:23.487Z,98622.00
2022-11-18T02:14:51.786Z,98618.00
2022-11-18T02:17:59.429Z,98628.00
2022-11-18T02:20:33.368Z,98637.00
2022-11-18T02:23:28.921Z,98635.00
2022-11-18T02:26:31.698Z,98635.00
2022-11-18T02:29:02.761Z,98640.00
2022-11-18T02:31:38.812Z,98636.00
2022-11-18T02:34:09.825Z,98627.00
2022-11-18T02:36:52.400Z,98634.00
2022-11-18T02:39:45.564Z,98639.00
2022-11-18T02:42:14.116Z,98634.00
2022-11-18T02:44:46.518Z,98646.00
2022-11-18T02:47:15.738Z,98642.00
2022-11-18T02:49:47.470Z,98638.00
2022-11-18T02:52:17.275Z,98640.00
2022-11-18T02:54:47.797Z,98635.00
2022-11-18T02:57:17.048Z,98643.00
2022-11-18T02:59:44.909Z,98646.00
2022-11-18T03:02:23.512Z,98649.00
2022-11-18T03:04:54.789Z,98655.00
2022-11-18T03:07:30.411Z,98653.00
2022-11-18T03:09:59.824Z,98656.00
2022-11-18T03:13:03.320Z,98653.00
2022-11-18T03:15:39.144Z,98650.00
2022-11-18T03:18:28.660Z,98649.00
2022-11-18T03:21:03.544Z,98656.00
2022-11-18T03:23:41.728Z,98656.00
2022-11-18T03:26:21.618Z,98656.00
2022-11-18T03:28:49.343Z,98658.00
2022-11-18T03:31:33.247Z,98668.00
2022-11-18T03:34:15.438Z,98668.00
2022-11-18T03:36:51.635Z,98677.00
2022-11-18T03:39:21.456Z,98672.00
2022-11-18T03:42:17.464Z,98690.00
2022-11-18T03:44:52.579Z,98702.00
2022-11-18T03:47:32.853Z,98702.00
2022-11-18T03:50:09.508Z,98707.00
2022-11-18T03:52:38.412Z,98703.00
2022-11-18T03:55:14.777Z,98706.00
2022-11-18T03:57:48.674Z,98700.00
2022-11-18T04:00:17.761Z,98703.00
2022-11-18T04:02:46.360Z,98710.00
2022-11-18T04:05:14.740Z,98703.00
2022-11-18T04:07:48.343Z,98716.00
2022-11-18T04:10:24.887Z,98718.00
2022-11-18T04:13:19.880Z,98725.00
2022-11-18T04:15:47.734Z,98726.00
2022-11-18T04:18:15.795Z,98727.00
2022-11-18T04:20:43.690Z,98727.00
2022-11-18T04:23:11.383Z,98729.00
2022-11-18T04:25:39.635Z,98721.00
2022-11-18T04:28:07.745Z,98721.00
2022-11-18T04:30:35.592Z,98729.00
2022-11-18T04:33:03.472Z,98739.00
2022-11-18T04:35:31.361Z,98742.00
2022-11-18T04:37:59.272Z,98754.00
2022-11-18T04:40:27.077Z,98755.00
2022-11-18T04:42:54.783Z,98761.00
2022-11-18T04:45:22.491Z,98770.00
2022-11-18T04:47:50.260Z,98756.00
2022-11-18T04:50:18.202Z,98765.00
2022-11-18T04:52:45.869Z,98766.00
2022-11-18T04:55:13.841Z,98761.00
2022-11-18T04:57:41.771Z,98772.00
2022-11-18T05:00:10.018Z,98769.00
2022-11-18T05:02:37.944Z,98771.00
2022-11-18T05:05:06.103Z,98768.00
2022-11-18T05:07:34.057Z,98771.00
2022-11-18T05:10:01.980Z,98773.00
2022-11-18T05:12:48.685Z,98766.00
2022-11-18T05:15:21.188Z,98772.00
2022-11-18T05:17:49.285Z,98769.00
2022-11-18T05:20:17.468Z,98766.00
2022-11-18T05:22:45.250Z,98767.00
2022-11-18T05:25:13.000Z,98782.00
2022-11-18T05:27:40.676Z,98787.00
2022-11-18T05:30:09.044Z,98801.00
2022-11-18T05:32:36.680Z,98793.00
2022-11-18T05:35:04.572Z,98795.00
2022-11-18T05:37:33.988Z,98799.00
2022-11-18T05:40:01.820Z,98805.00
2022-11-18T05:42:48.132Z,98810.00
2022-11-18T05:45:16.499Z,98804.00
2022-11-18T05:48:04.855Z,98810.00
2022-11-18T05:50:34.728Z,98800.00
2022-11-18T05:53:02.969Z,98810.00
2022-11-18T05:55:48.429Z,98810.00
2022-11-18T05:58:16.275Z,98819.00
2022-11-18T06:00:44.847Z,98828.00
2022-11-18T06:03:30.907Z,98837.00
2022-11-18T06:06:01.964Z,98839.00
2022-11-18T06:08:33.669Z,98840.00
2022-11-18T06:11:01.832Z,98843.00
2022-11-18T06:13:36.189Z,98846.00
2022-11-18T06:16:04.603Z,98852.00
2022-11-18T06:18:33.147Z,98850.00
2022-11-18T06:21:04.289Z,98849.00
2022-11-18T06:23:35.537Z,98852.00
2022-11-18T06:26:03.481Z,98857.00
2022-11-18T06:28:31.577Z,98862.00
2022-11-18T06:30:59.539Z,98871.00
2022-11-18T06:33:27.267Z,98879.00
2022-11-18T06:35:55.041Z,98873.00
2022-11-18T06:38:25.459Z,98871.00
2022-11-18T06:40:53.534Z,98872.00
2022-11-18T06:43:39.463Z,98885.00
2022-11-18T06:46:31.144Z,98889.00
2022-11-18T06:48:59.312Z,98897.00
2022-11-18T06:51:30.479Z,98891.00
2022-11-18T06:53:58.320Z,98885.00
2022-11-18T06:56:26.493Z,98894.00
2022-11-18T06:58:55.688Z,98895.00
2022-11-18T07:01:25.849Z,98897.00
2022-11-18T07:03:54.314Z,98896.00
2022-11-18T07:06:30.782Z,98899.00
2022-11-18T07:09:00.304Z,98911.00
2022-11-18T07:11:28.404Z,98914.00
2022-11-18T07:13:56.421Z,98911.00
2022-11-18T07:16:25.759Z,98913.00
2022-11-18T07:18:54.810Z,98922.00
2022-11-18T07:21:25.545Z,98917.00
2022-11-18T07:23:54.798Z,98921.00
2022-11-18T07:26:23.335Z,98925.00
2022-11-18T07:28:51.320Z,98926.00
2022-11-18T07:31:20.583Z,98927.00
2022-11-18T07:33:49.661Z,98928.00
2022-11-18T07:36:22.631Z,98929.00
2022-11-18T07:38:51.282Z,98933.00
2022-11-18T07:41:21.768Z,98941.00
2022-11-18T07:43:51.706Z,98951.00
2022-11-18T07:46:25.164Z,98946.00
2022-11-18T07:48:57.378Z,98950.00
2022-11-18T07:51:30.332Z,98947.00
2022-11-18T07:53:58.257Z,98957.00
2022-11-18T07:56:26.183Z,98968.00
2022-11-18T07:58:55.256Z,98971.00
2022-11-18T08:01:25.674Z,98981.00
2022-11-18T08:03:53.583Z,98979.00
2022-11-18T08:06:21.772Z,98977.00
2022-11-18T08:08:50.270Z,98989.00
2022-11-18T08:11:22.713Z,98985.00
2022-11-18T08:13:54.673Z,98994.00
2022-11-18T08:16:24.459Z,98992.00
2022-11-18T08:18:52.496Z,98996.00
2022-11-18T08:21:21.779Z,98992.00
2022-11-18T08:23:54.541Z,99002.00
2022-11-18T08:26:23.527Z,99007.00
2022-11-18T08:28:51.452Z,99002.00
2022-11-18T08:31:21.919Z,99010.00
2022-11-18T08:33:50.055Z,99014.00
2022-11-18T08:36:20.199Z,99016.00
2022-11-18T08:38:48.288Z,99025.00
2022-11-18T08:41:18.867Z,99013.00
2022-11-18T08:43:47.061Z,99020.00
2022-11-18T08:46:15.021Z,99028.00
2022-11-18T08:48:42.835Z,99032.00
2022-11-18T08:51:12.535Z,99030.00
2022-11-18T08:53:40.508Z,99036.00
2022-11-18T08:56:12.306Z,99034.00
2022-11-18T08:58:41.980Z,99037.00
2022-11-18T09:01:09.922Z,99041.00
2022-11-18T09:03:37.907Z,99044.00
2022-11-18T09:06:14.509Z,99051.00
2022-11-18T09:08:43.212Z,99049.00
2022-11-18T09:11:16.500Z,99053.00
2022-11-18T09:14:25.856Z,99051.00
2022-11-18T09:16:34.639Z,99057.00
2022-11-18T09:19:18.586Z,99058.00
2022-11-18T09:21:50.820Z,99062.00
2022-11-18T09:24:18.992Z,99060.00
2022-11-18T09:26:48.463Z,99068.00
2022-11-18T09:29:16.372Z,99079.00
2022-11-18T09:31:44.310Z,99076.00
2022-11-18T09:34:12.133Z,99081.00
2022-11-18T09:36:40.037Z,99083.00
2022-11-18T09:39:07.746Z,99079.00
2022-11-18T09:41:55.644Z,99089.00
2022-11-18T09:44:34.003Z,99087.00
2022-11-18T09:47:26.321Z,99102.00
2022-11-18T09:50:42.204Z,99094.00
2022-11-18T09:53:22.095Z,99106.00
2022-11-18T09:55:51.509Z,99112.00
2022-11-18T09:58:34.900Z,99114.00
2022-11-18T10:01:04.102Z,99117.00
2022-11-18T10:03:33.443Z,99119.00
2022-11-18T10:06:10.808Z,99121.00
2022-11-18T10:08:58.453Z,99120.00
2022-11-18T10:11:29.546Z,99117.00
2022-11-18T10:14:47.076Z,99122.00
2022-11-18T10:17:41.789Z,99131.00
2022-11-18T10:20:28.090Z,99123.00
2022-11-18T10:23:14.198Z,99129.00
2022-11-18T10:25:42.632Z,99139.00
2022-11-18T10:28:24.008Z,99136.00
2022-11-18T10:30:52.766Z,99135.00
2022-11-18T10:33:23.601Z,99144.00
2022-11-18T10:35:52.466Z,99143.00
2022-11-18T10:38:21.443Z,99154.00
2022-11-18T10:41:00.489Z,99163.00
2022-11-18T10:43:55.181Z,99165.00
2022-11-18T10:46:33.377Z,99167.00
2022-11-18T10:49:10.440Z,99177.00
2022-11-18T10:51:48.756Z,99171.00
2022-11-18T10:54:22.649Z,99173.00
2022-11-18T10:57:06.713Z,99172.00
2022-11-18T10:59:40.160Z,99187.00
2022-11-18T11:02:31.277Z,99177.00
2022-11-18T11:05:17.914Z,99179.00
2022-11-18T11:07:47.355Z,99181.00
2022-11-18T11:10:24.539Z,99184.00
2022-11-18T11:13:16.098Z,99181.00
2022-11-18T11:15:49.009Z,99187.00
2022-11-18T11:18:43.306Z,99193.00
2022-11-18T11:21:20.304Z,99194.00
2022-11-18T11:23:48.120Z,99198.00
2022-11-18T11:29:38.822Z,99193.00
2022-11-18T11:32:38.856Z,99206.00
2022-11-18T11:35:32.574Z,99201.00
2022-11-18T11:38:01.236Z,99196.00
2022-11-18T11:40:47.343Z,99204.00
2022-11-18T11:43:43.698Z,99206.00
2022-11-18T11:46:17.201Z,99214.00
2022-11-18T11:49:08.375Z,99219.00
2022-11-18T11:51:46.358Z,99211.00
2022-11-18T11:54:18.017Z,99215.00
2022-11-18T11:56:54.005Z,99218.00
2022-11-18T11:59:43.173Z,99218.00
2022-11-18T12:02:32.525Z,99231.00
2022-11-18T12:05:39.674Z,99222.00
2022-11-18T12:08:17.448Z,99231.00
2022-11-18T12:10:53.576Z,99237.00
2022-11-18T12:13:24.399Z,99236.00
2022-11-18T12:16:04.087Z,99237.00
2022-11-18T12:18:40.272Z,99236.00
2022-11-18T12:21:08.291Z,99240.00
2022-11-18T12:23:36.229Z,99237.00
2022-11-18T12:26:09.993Z,99243.00
2022-11-18T12:28:43.482Z,99248.00
2022-11-18T12:31:24.964Z,99241.00
2022-11-18T12:34:01.139Z,99244.00
2022-11-18T12:36:40.194Z,99248.00
2022-11-18T12:39:37.090Z,99246.00
2022-11-18T12:42:24.454Z,99247.00
2022-11-18T12:44:54.674Z,99255.00
2022-11-18T12:47:40.856Z,99254.00
2022-11-18T12:50:14.457Z,99257.00
2022-11-18T12:52:42.444Z,99260.00
2022-11-18T12:55:23.351Z,99267.00
2022-11-18T12:57:52.176Z,99271.00
2022-11-18T13:00:26.072Z,99275.00
2022-11-18T13:02:56.015Z,99277.00
2022-11-18T13:05:29.182Z,99281.00
2022-11-18T13:08:14.999Z,99278.00
2022-11-18T13:11:47.868Z,99279.00
2022-11-18T13:14:49.636Z,99290.00
2022-11-18T13:17:54.852Z,99291.00
2022-11-18T13:20:33.410Z,99295.00
2022-11-18T13:23:40.518Z,99308.00
2022-11-18T13:26:19.649Z,99294.00
2022-11-18T13:29:05.443Z,99312.00
2022-11-18T13:31:48.607Z,99300.00
2022-11-18T13:34:27.415Z,99308.00
2022-11-18T13:36:57.205Z,99308.00
2022-11-18T13:39:27.076Z,99319.00
2022-11-18T13:42:04.900Z,99322.00
2022-11-18T13:44:38.050Z,99324.00
2022-11-18T13:47:24.419Z,99324.00
2022-11-18T13:50:11.136Z,99332.00
2022-11-18T13:52:45.427Z,99330.00
2022-11-18T13:55:19.765Z,99327.00
2022-11-18T13:58:12.443Z,99339.00
2022-11-18T14:00:40.450Z,99328.00
2022-11-18T14:03:27.745Z,99339.00
2022-11-18T14:05:56.787Z,99339.00
2022-11-18T14:08:29.779Z,99338.00
2022-11-18T14:10:58.261Z,99342.00
2022-11-18T14:13:28.009Z,99342.00
2022-11-18T14:15:57.971Z,99341.00
2022-11-18T14:18:32.960Z,99352.00
2022-11-18T14:21:01.863Z,99350.00
2022-11-18T14:23:37.558Z,99358.00
2022-11-18T14:26:07.015Z,99352.00
2022-11-18T14:28:38.340Z,99357.00
2022-11-18T14:31:17.444Z,99356.00
2022-11-18T14:34:06.627Z,99373.00
2022-11-18T14:36:34.424Z,99369.00
2022-11-18T14:39:25.384Z,99376.00
2022-11-18T14:41:49.983Z,99373.00
2022-11-18T14:44:19.524Z,99380.00
2022-11-18T14:46:59.200Z,99389.00
2022-11-18T14:49:28.371Z,99392.00
2022-11-18T14:51:56.268Z,99399.00
2022-11-18T14:54:27.406Z,99402.00
2022-11-18T14:56:58.675Z,99402.00
2022-11-18T14:59:26.776Z,99410.00
2022-11-18T15:01:55.125Z,99409.00
2022-11-18T15:04:23.239Z,99412.00
2022-11-18T15:06:51.199Z,99413.00
2022-11-18T15:09:19.528Z,99417.00
2022-11-18T15:11:47.985Z,99420.00
2022-11-18T15:14:16.163Z,99423.00
2022-11-18T15:16:44.425Z,99429.00
2022-11-18T15:19:15.536Z,99423.00
2022-11-18T15:21:44.314Z,99427.00
2022-11-18T15:24:12.231Z,99427.00
2022-11-18T15:26:42.682Z,99438.00
2022-11-18T15:29:21.901Z,99440.00
2022-11-18T15:31:50.337Z,99438.00
2022-11-18T15:34:20.648Z,99442.00
2022-11-18T15:36:49.286Z,99446.00
2022-11-18T15:39:17.166Z,99443.00
2022-11-18T15:41:44.963Z,99444.00
2022-11-18T15:44:12.932Z,99448.00
2022-11-18T15:46:41.421Z,99455.00
2022-11-18T15:49:14.270Z,99457.00
2022-11-18T15:51:43.968Z,99459.00
2022-11-18T15:54:11.847Z,99468.00
2022-11-18T15:56:40.155Z,99468.00
2022-11-18T15:59:11.349Z,99466.00
2022-11-18T16:01:41.353Z,99467.00
2022-11-18T16:04:11.159Z,99472.00
2022-11-18T16:06:39.689Z,99471.00
2022-11-18T16:09:07.865Z,99476.00
2022-11-18T16:11:54.279Z,99472.00
2022-11-18T16:14:23.780Z,99470.00
2022-11-18T16:16:54.280Z,99468.00
2022-11-18T16:19:24.875Z,99476.00
2022-11-18T16:21:54.773Z,99476.00
2022-11-18T16:24:27.663Z,99471.00
2022-11-18T16:26:55.967Z,99483.00
2022-11-18T16:29:25.042Z,99478.00
2022-11-18T16:31:54.777Z,99488.00
2022-11-18T16:34:27.285Z,99497.00
2022-11-18T16:36:57.201Z,99494.00
2022-11-18T16:39:28.084Z,99502.00
2022-11-18T16:42:03.800Z,99511.00
2022-11-18T16:44:35.259Z,99508.00
2022-11-18T16:47:06.544Z,99527.00
2022-11-18T16:49:38.573Z,99530.00
2022-11-18T16:52:08.947Z,99533.00
2022-11-18T16:54:42.948Z,99533.00
2022-11-18T16:57:12.760Z,99538.00
2022-11-18T16:59:40.700Z,99534.00
2022-11-18T17:02:10.732Z,99541.00
2022-11-18T17:04:38.896Z,99536.00
2022-11-18T17:07:07.163Z,99531.00
2022-11-18T17:09:36.041Z,99541.00
2022-11-18T17:12:04.586Z,99548.00
2022-11-18T17:14:32.433Z,99548.00
2022-11-18T17:17:00.039Z,99554.00
2022-11-18T17:19:27.806Z,99553.00
2022-11-18T17:21:56.383Z,99548.00
2022-11-18T17:24:25.114Z,99555.00
2022-11-18T17:26:53.661Z,99555.00
2022-11-18T17:29:21.927Z,99561.00
2022-11-18T17:31:50.277Z,99563.00
2022-11-18T17:34:18.678Z,99565.00
2022-11-18T17:36:46.756Z,99574.00
2022-11-18T17:39:16.177Z,99584.00
2022-11-18T17:42:02.954Z,99595.00
2022-11-18T17:44:30.815Z,99587.00
2022-11-18T17:46:58.591Z,99583.00
2022-11-18T17:49:26.284Z,99596.00
2022-11-18T17:51:54.191Z,99597.00
2022-11-18T17:54:22.531Z,99601.00
2022-11-18T17:56:53.758Z,99600.00
2022-11-18T17:59:23.244Z,99610.00
2022-11-18T18:01:57.572Z,99613.00
2022-11-18T18:04:27.204Z,99614.00
2022-11-18T18:06:55.630Z,99609.00
2022-11-18T18:09:28.909Z,99611.00
2022-11-18T18:12:00.076Z,99610.00
2022-11-18T18:14:28.100Z,99613.00
2022-11-18T18:16:55.905Z,99620.00
2022-11-18T18:19:24.755Z,99620.00
2022-11-18T18:21:53.805Z,99628.00
2022-11-18T18:24:22.622Z,99633.00
2022-11-18T18:26:51.206Z,99630.00
2022-11-18T18:29:18.970Z,99635.00
2022-11-18T18:31:47.142Z,99637.00
2022-11-18T18:34:15.165Z,99630.00
2022-11-18T18:36:43.386Z,99639.00
2022-11-18T18:39:11.432Z,99644.00
2022-11-18T18:41:39.452Z,99649.00
2022-11-18T18:44:07.376Z,99653.00
2022-11-18T18:46:36.912Z,99659.00
2022-11-18T18:49:13.915Z,99665.00
2022-11-18T18:51:42.579Z,99662.00
2022-11-18T18:54:15.210Z,99677.00
2022-11-18T18:56:43.718Z,99675.00
2022-11-18T18:59:11.956Z,99682.00
2022-11-18T19:01:40.483Z,99669.00
2022-11-18T19:04:11.525Z,99662.00
2022-11-18T19:09:28.916Z,99663.00
2022-11-18T19:12:16.916Z,99673.00
2022-11-18T19:14:44.739Z,99683.00
2022-11-18T19:17:13.145Z,99687.00
2022-11-18T19:20:01.080Z,99679.00
2022-11-18T19:22:32.917Z,99673.00
2022-11-18T19:25:01.674Z,99674.00
2022-11-18T19:27:30.341Z,99675.00
2022-11-18T19:29:58.641Z,99688.00
2022-11-18T19:32:26.746Z,99683.00
2022-11-18T19:34:54.605Z,99688.00
2022-11-18T19:37:22.559Z,99701.00
2022-11-18T19:39:50.318Z,99711.00
2022-11-18T19:42:18.223Z,99714.00
2022-11-18T19:44:46.401Z,99713.00
2022-11-18T19:47:14.243Z,99713.00
2022-11-18T19:49:42.085Z,99709.00
2022-11-18T19:52:10.379Z,99713.00
2022-11-18T19:54:39.336Z,99709.00
2022-11-18T19:57:08.247Z,99708.00
2022-11-18T19:59:36.153Z,99710.00
2022-11-18T20:02:04.394Z,99724.00
2022-11-18T20:04:32.352Z,99719.00
2022-11-18T20:07:00.492Z,99709.00
2022-11-18T20:09:28.816Z,99720.00
2022-11-18T20:11:56.870Z,99709.00
2022-11-18T20:14:24.984Z,99722.00
2022-11-18T20:16:52.799Z,99732.00
2022-11-18T20:19:20.897Z,99722.00
2022-11-18T20:21:49.723Z,99736.00
2022-11-18T20:24:18.960Z,99734.00
2022-11-18T20:26:47.064Z,99734.00
2022-11-18T20:29:18.587Z,99728.00
2022-11-18T20:31:46.527Z,99726.00
2022-11-18T20:34:15.040Z,99735.00
2022-11-18T20:36:43.164Z,99737.00
2022-11-18T20:39:15.984Z,99735.00
2022-11-18T20:42:04.358Z,99735.00
2022-11-18T20:44:32.655Z,99747.00
2022-11-18T20:47:00.833Z,99756.00
2022-11-18T20:49:29.093Z,99747.00
2022-11-18T20:51:56.871Z,99751.00
2022-11-18T20:54:24.862Z,99752.00
2022-11-18T20:56:52.557Z,99753.00
2022-11-18T20:59:20.787Z,99742.00
2022-11-18T21:01:49.240Z,99751.00
2022-11-18T21:04:17.814Z,99747.00
2022-11-18T21:06:45.972Z,99747.00
2022-11-18T21:09:14.621Z,99751.00
2022-11-18T21:11:45.551Z,99752.00
2022-11-18T21:14:24.432Z,99750.00
2022-11-18T21:17:01.874Z,99751.00
2022-11-18T21:19:30.531Z,99756.00
2022-11-18T21:21:58.495Z,99755.00
2022-11-18T21:24:34.503Z,99762.00
2022-11-18T21:27:03.708Z,99766.00
2022-11-18T21:29:33.353Z,99765.00
2022-11-18T21:32:04.575Z,99773.00
2022-11-18T21:34:32.423Z,99779.00
2022-11-18T21:37:00.283Z,99774.00
2022-11-18T21:39:28.332Z,99777.00
2022-11-18T21:41:57.518Z,99777.00
2022-11-18T21:44:28.583Z,99784.00
2022-11-18T21:46:57.823Z,99780.00
2022-11-18T21:49:25.770Z,99788.00
2022-11-18T21:51:53.580Z,99796.00
2022-11-18T21:54:21.396Z,99793.00
2022-11-18T21:56:49.745Z,99795.00
2022-11-18T21:59:17.901Z,99794.00
2022-11-18T22:01:45.751Z,99798.00
2022-11-18T22:04:33.495Z,99802.00
2022-11-18T22:07:01.481Z,99797.00
2022-11-18T22:09:34.623Z,99802.00
2022-11-18T22:12:04.517Z,99817.00
2022-11-18T22:14:32.594Z,99812.00
2022-11-18T22:17:00.312Z,99805.00
2022-11-18T22:19:28.620Z,99804.00
2022-11-18T22:21:59.586Z,99808.00
2022-11-18T22:24:27.547Z,99806.00
2022-11-18T22:26:55.349Z,99811.00
2022-11-18T22:29:24.473Z,99822.00
2022-11-18T22:31:53.200Z,99825.00
2022-11-18T22:34:21.631Z,99827.00
2022-11-18T22:36:49.495Z,99829.00
2022-11-18T22:39:17.933Z,99828.00
2022-11-18T22:42:04.479Z,99832.00
2022-11-18T22:44:32.354Z,99832.00
2022-11-18T22:47:00.240Z,99838.00
2022-11-18T22:49:28.703Z,99841.00
2022-11-18T22:51:56.645Z,99844.00
2022-11-18T22:54:42.190Z,99845.00
2022-11-18T22:57:10.122Z,99849.00
2022-11-18T22:59:38.171Z,99846.00
2022-11-18T23:02:06.176Z,99847.00
2022-11-18T23:04:34.909Z,99846.00
2022-11-18T23:07:03.021Z,99843.00
2022-11-18T23:09:31.215Z,99849.00
2022-11-18T23:12:17.784Z,99844.00
2022-11-18T23:14:46.025Z,99846.00
2022-11-18T23:17:13.978Z,99844.00
2022-11-18T23:19:47.928Z,99851.00
2022-11-18T23:22:15.819Z,99852.00
2022-11-18T23:24:44.146Z,99851.00
2022-11-18T23:27:12.083Z,99859.00
2022-11-18T23:29:39.761Z,99865.00
2022-11-18T23:32:07.713Z,99867.00
2022-11-18T23:34:35.596Z,99869.00
2022-11-18T23:37:03.350Z,99879.00
2022-11-18T23:39:31.191Z,99880.00
2022-11-18T23:42:00.943Z,99876.00
2022-11-18T23:44:46.998Z,99880.00
2022-11-18T23:47:15.158Z,99878.00
2022-11-18T23:49:42.998Z,99873.00
2022-11-18T23:52:11.086Z,99887.00
2022-11-18T23:54:39.077Z,99879.00
2022-11-18T23:57:07.091Z,99885.00
2022-11-18T23:59:35.007Z,99884.00
